This is the latest recevied weather packets stored in our database for station/object CE2LOH-10. If no packets are shown the sender has not sent any weather packets the latest 10 day(s).
| Time | Temp. | Humidity | Pressure | Rain* | Wind** | Luminosity | Snow |
|---|---|---|---|---|---|---|---|
| 1777702123 | 15° C | 48% | 995.8 hPa | - | - | - | - |
| 1777701223 | 15° C | 48% | 996 hPa | - | - | - | - |
| 1777700323 | 15° C | 48% | 996.1 hPa | - | - | - | - |
| 1777699423 | 15° C | 48% | 996.3 hPa | - | - | - | - |
| 1777698523 | 15.56° C | 48% | 996.3 hPa | - | - | - | - |
| 1777697623 | 15.56° C | 48% | 996.5 hPa | - | - | - | - |
| 1777696722 | 15.56° C | 48% | 996.6 hPa | - | - | - | - |
| 1777695822 | 15.56° C | 47% | 996.8 hPa | - | - | - | - |
| 1777694922 | 16.11° C | 47% | 997 hPa | - | - | - | - |
| 1777694022 | 16.11° C | 48% | 997.1 hPa | - | - | - | - |
| 1777693122 | 16.11° C | 47% | 997.3 hPa | - | - | - | - |
| 1777692222 | 16.67° C | 47% | 997.3 hPa | - | - | - | - |
| 1777691322 | 16.67° C | 47% | 997.4 hPa | - | - | - | - |
| 1777690422 | 16.67° C | 47% | 997.6 hPa | - | - | - | - |
| 1777689521 | 17.22° C | 46% | 997.6 hPa | - | - | - | - |
| 1777688621 | 17.22° C | 46% | 997.7 hPa | - | - | - | - |
| 1777687721 | 17.22° C | 46% | 997.8 hPa | - | - | - | - |
| 1777674219 | 20.56° C | 45% | 997.3 hPa | - | - | - | - |
| 1777671485 | 21.67° C | 44% | 997.2 hPa | - | - | - | - |
| 1777670586 | 21.67° C | 44% | 997.3 hPa | - | - | - | - |
| 1777667884 | 22.22° C | 43% | 997.4 hPa | - | - | - | - |
| 1777666984 | 21.67° C | 44% | 997.4 hPa | - | - | - | - |
| 1777665184 | 21.67° C | 45% | 997.3 hPa | - | - | - | - |
| 1777664284 | 21.67° C | 45% | 997.4 hPa | - | - | - | - |
| 1777663384 | 21.67° C | 45% | 997.2 hPa | - | - | - | - |
* Rain since midnight (hover to see other rain measurements)
** Current wind speed in m/s (hover to see current wind gust speed)